Wirtz, Virginia
Current Conditions -  °F | °C
As of 11:54 PM on Friday 28 Nov 2014 (Local Time) from KROA Reporting Station
Clear Clear  
Wind Chill: 23°   Ceiling: Unl
Heat Index: 28°   Visibility: 10mi
Dew Point: 20°   Wind: 5mph
Humidity: 72%   Direction: 340°NNW
Pressure: 30.26"   Gusts: NA
Location:  37.06°N, 79.7°W
Report Text: KROA 290454Z 34004KT 10SM CLR M02/M07 A3026 RMK AO2 SLP256 T10221067 400281028
Loading
Personal Weather Stations






























Interactive Weather Map New forecast layout! Learn more

10-Day Weather Forecast

Advertisements
Track Severe Weather on mobile